sensor_id;sensor_type;location;lat;lon;timestamp;temperature;humidity
8643;DHT22;4359;49.358;11.256;2023-04-03T00:01:16;2.20;99.90
8643;DHT22;4359;49.358;11.256;2023-04-03T00:03:43;2.10;99.90
8643;DHT22;4359;49.358;11.256;2023-04-03T00:06:08;2.00;99.90
8643;DHT22;4359;49.358;11.256;2023-04-03T00:08:37;1.90;99.90
8643;DHT22;4359;49.358;11.256;2023-04-03T00:11:04;1.90;99.90
8643;DHT22;4359;49.358;11.256;2023-04-03T00:13:29;1.90;99.90
8643;DHT22;4359;49.358;11.256;2023-04-03T00:15:55;1.80;99.90
8643;DHT22;4359;49.358;11.256;2023-04-03T00:18:21;1.70;99.90
8643;DHT22;4359;49.358;11.256;2023-04-03T00:20:47;1.60;99.90
8643;DHT22;4359;49.358;11.256;2023-04-03T00:23:13;1.60;99.90
8643;DHT22;4359;49.358;11.256;2023-04-03T00:25:39;1.60;99.90
8643;DHT22;4359;49.358;11.256;2023-04-03T00:28:04;1.60;99.90
8643;DHT22;4359;49.358;11.256;2023-04-03T00:30:30;1.60;99.90
8643;DHT22;4359;49.358;11.256;2023-04-03T00:32:56;1.60;99.90
8643;DHT22;4359;49.358;11.256;2023-04-03T00:35:22;1.60;99.90
8643;DHT22;4359;49.358;11.256;2023-04-03T00:37:51;1.50;99.90
8643;DHT22;4359;49.358;11.256;2023-04-03T00:40:18;1.50;99.90
8643;DHT22;4359;49.358;11.256;2023-04-03T00:42:46;1.50;99.90
8643;DHT22;4359;49.358;11.256;2023-04-03T00:45:35;1.50;99.90
8643;DHT22;4359;49.358;11.256;2023-04-03T00:48:04;1.50;99.90
8643;DHT22;4359;49.358;11.256;2023-04-03T00:50:33;1.50;99.90
8643;DHT22;4359;49.358;11.256;2023-04-03T00:52:59;1.50;99.90
8643;DHT22;4359;49.358;11.256;2023-04-03T00:55:25;1.50;99.90
8643;DHT22;4359;49.358;11.256;2023-04-03T00:57:51;1.50;99.90
8643;DHT22;4359;49.358;11.256;2023-04-03T01:00:19;1.40;99.90
8643;DHT22;4359;49.358;11.256;2023-04-03T01:02:45;1.40;99.90
8643;DHT22;4359;49.358;11.256;2023-04-03T01:05:11;1.40;99.90
8643;DHT22;4359;49.358;11.256;2023-04-03T01:07:38;1.30;99.90
8643;DHT22;4359;49.358;11.256;2023-04-03T01:10:08;1.40;99.90
8643;DHT22;4359;49.358;11.256;2023-04-03T01:12:37;1.30;99.90
8643;DHT22;4359;49.358;11.256;2023-04-03T01:15:16;1.20;99.90
8643;DHT22;4359;49.358;11.256;2023-04-03T01:17:53;1.10;99.90
8643;DHT22;4359;49.358;11.256;2023-04-03T01:25:28;0.90;99.90
8643;DHT22;4359;49.358;11.256;2023-04-03T01:27:54;0.80;99.90
8643;DHT22;4359;49.358;11.256;2023-04-03T01:30:22;0.80;99.90
8643;DHT22;4359;49.358;11.256;2023-04-03T01:32:50;0.90;99.90
8643;DHT22;4359;49.358;11.256;2023-04-03T01:35:15;0.80;99.90
8643;DHT22;4359;49.358;11.256;2023-04-03T01:37:41;0.80;99.90
8643;DHT22;4359;49.358;11.256;2023-04-03T01:40:07;0.80;99.90
8643;DHT22;4359;49.358;11.256;2023-04-03T01:42:33;0.70;99.90
8643;DHT22;4359;49.358;11.256;2023-04-03T01:44:59;0.60;99.90
8643;DHT22;4359;49.358;11.256;2023-04-03T01:47:25;0.60;99.90
8643;DHT22;4359;49.358;11.256;2023-04-03T01:49:50;0.60;99.90
8643;DHT22;4359;49.358;11.256;2023-04-03T01:52:16;0.50;99.90
8643;DHT22;4359;49.358;11.256;2023-04-03T01:54:41;0.50;99.90
8643;DHT22;4359;49.358;11.256;2023-04-03T01:57:07;0.40;99.90
8643;DHT22;4359;49.358;11.256;2023-04-03T01:59:33;0.30;99.90
8643;DHT22;4359;49.358;11.256;2023-04-03T02:01:59;0.30;99.90
8643;DHT22;4359;49.358;11.256;2023-04-03T02:04:24;0.20;99.90
8643;DHT22;4359;49.358;11.256;2023-04-03T02:06:50;0.20;99.90
8643;DHT22;4359;49.358;11.256;2023-04-03T02:09:16;0.10;99.90
8643;DHT22;4359;49.358;11.256;2023-04-03T02:11:41;0.10;99.90
8643;DHT22;4359;49.358;11.256;2023-04-03T02:14:07;0.00;99.90
8643;DHT22;4359;49.358;11.256;2023-04-03T02:16:32;0.00;99.90
8643;DHT22;4359;49.358;11.256;2023-04-03T02:18:58;0.00;99.90
8643;DHT22;4359;49.358;11.256;2023-04-03T02:21:24;-0.10;99.90
8643;DHT22;4359;49.358;11.256;2023-04-03T02:23:49;-0.10;99.90
8643;DHT22;4359;49.358;11.256;2023-04-03T02:26:15;-0.10;99.90
8643;DHT22;4359;49.358;11.256;2023-04-03T02:28:41;-0.20;99.90
8643;DHT22;4359;49.358;11.256;2023-04-03T02:31:07;-0.20;99.90
8643;DHT22;4359;49.358;11.256;2023-04-03T02:33:34;-0.30;99.90
8643;DHT22;4359;49.358;11.256;2023-04-03T02:36:03;-0.30;99.90
8643;DHT22;4359;49.358;11.256;2023-04-03T02:38:30;-0.30;99.90
8643;DHT22;4359;49.358;11.256;2023-04-03T02:41:02;-0.40;99.90
8643;DHT22;4359;49.358;11.256;2023-04-03T02:43:28;-0.40;99.90
8643;DHT22;4359;49.358;11.256;2023-04-03T02:45:53;-0.40;99.90
8643;DHT22;4359;49.358;11.256;2023-04-03T02:48:19;-0.40;99.90
8643;DHT22;4359;49.358;11.256;2023-04-03T02:50:44;-0.40;99.90
8643;DHT22;4359;49.358;11.256;2023-04-03T02:53:10;-0.40;99.90
8643;DHT22;4359;49.358;11.256;2023-04-03T02:55:36;-0.40;99.90
8643;DHT22;4359;49.358;11.256;2023-04-03T02:58:01;-0.40;99.90
8643;DHT22;4359;49.358;11.256;2023-04-03T03:00:27;-0.40;99.90
8643;DHT22;4359;49.358;11.256;2023-04-03T03:02:52;-0.30;99.90
8643;DHT22;4359;49.358;11.256;2023-04-03T03:05:18;-0.30;99.90
8643;DHT22;4359;49.358;11.256;2023-04-03T03:07:43;-0.40;99.90
8643;DHT22;4359;49.358;11.256;2023-04-03T03:10:09;-0.40;99.90
8643;DHT22;4359;49.358;11.256;2023-04-03T03:12:35;-0.40;99.90
8643;DHT22;4359;49.358;11.256;2023-04-03T03:15:00;-0.40;99.90
8643;DHT22;4359;49.358;11.256;2023-04-03T03:17:26;-0.50;99.90
8643;DHT22;4359;49.358;11.256;2023-04-03T03:19:51;-0.50;99.90
8643;DHT22;4359;49.358;11.256;2023-04-03T03:22:17;-0.50;99.90
8643;DHT22;4359;49.358;11.256;2023-04-03T03:24:43;-0.60;99.90
8643;DHT22;4359;49.358;11.256;2023-04-03T03:27:08;-0.60;99.90
8643;DHT22;4359;49.358;11.256;2023-04-03T03:29:34;-0.60;99.90
8643;DHT22;4359;49.358;11.256;2023-04-03T03:31:59;-0.60;99.90
8643;DHT22;4359;49.358;11.256;2023-04-03T03:34:25;-0.60;99.90
8643;DHT22;4359;49.358;11.256;2023-04-03T03:36:51;-0.70;99.90
8643;DHT22;4359;49.358;11.256;2023-04-03T03:39:16;-0.70;99.90
8643;DHT22;4359;49.358;11.256;2023-04-03T03:41:42;-0.70;99.90
8643;DHT22;4359;49.358;11.256;2023-04-03T03:44:07;-0.70;99.90
8643;DHT22;4359;49.358;11.256;2023-04-03T03:46:33;-0.80;99.90
8643;DHT22;4359;49.358;11.256;2023-04-03T03:48:58;-0.70;99.90
8643;DHT22;4359;49.358;11.256;2023-04-03T03:51:24;-0.80;99.90
8643;DHT22;4359;49.358;11.256;2023-04-03T03:53:50;-0.70;99.90
8643;DHT22;4359;49.358;11.256;2023-04-03T03:56:16;-0.70;99.90
8643;DHT22;4359;49.358;11.256;2023-04-03T03:58:41;-0.70;99.90
8643;DHT22;4359;49.358;11.256;2023-04-03T04:01:07;-0.70;99.90
8643;DHT22;4359;49.358;11.256;2023-04-03T04:03:33;-0.60;99.90
8643;DHT22;4359;49.358;11.256;2023-04-03T04:05:58;-0.50;99.90
8643;DHT22;4359;49.358;11.256;2023-04-03T04:08:24;-0.50;99.90
8643;DHT22;4359;49.358;11.256;2023-04-03T04:10:50;-0.50;99.90
8643;DHT22;4359;49.358;11.256;2023-04-03T04:13:15;-0.50;99.90
8643;DHT22;4359;49.358;11.256;2023-04-03T04:15:42;-0.40;99.90
8643;DHT22;4359;49.358;11.256;2023-04-03T04:18:08;-0.40;99.90
8643;DHT22;4359;49.358;11.256;2023-04-03T04:20:33;-0.30;99.90
8643;DHT22;4359;49.358;11.256;2023-04-03T04:22:59;-0.30;99.90
8643;DHT22;4359;49.358;11.256;2023-04-03T04:25:24;-0.30;99.90
8643;DHT22;4359;49.358;11.256;2023-04-03T04:27:50;-0.20;99.90
8643;DHT22;4359;49.358;11.256;2023-04-03T04:30:16;-0.20;99.90
8643;DHT22;4359;49.358;11.256;2023-04-03T04:32:42;-0.20;99.90
8643;DHT22;4359;49.358;11.256;2023-04-03T04:35:07;-0.20;99.90
8643;DHT22;4359;49.358;11.256;2023-04-03T04:37:33;-0.20;99.90
8643;DHT22;4359;49.358;11.256;2023-04-03T04:39:58;-0.20;99.90
8643;DHT22;4359;49.358;11.256;2023-04-03T04:42:24;-0.30;99.90
8643;DHT22;4359;49.358;11.256;2023-04-03T04:44:50;-0.30;99.90
8643;DHT22;4359;49.358;11.256;2023-04-03T04:47:16;-0.30;99.90
8643;DHT22;4359;49.358;11.256;2023-04-03T04:49:41;-0.20;99.90
8643;DHT22;4359;49.358;11.256;2023-04-03T04:52:07;-0.10;99.90
8643;DHT22;4359;49.358;11.256;2023-04-03T04:54:33;-0.20;99.90
8643;DHT22;4359;49.358;11.256;2023-04-03T04:56:58;-0.20;99.90
8643;DHT22;4359;49.358;11.256;2023-04-03T04:59:24;-0.20;99.90
8643;DHT22;4359;49.358;11.256;2023-04-03T05:01:50;-0.10;99.90
8643;DHT22;4359;49.358;11.256;2023-04-03T05:04:15;-0.10;99.90
8643;DHT22;4359;49.358;11.256;2023-04-03T05:06:41;-0.10;99.90
8643;DHT22;4359;49.358;11.256;2023-04-03T05:09:07;-0.10;99.90
8643;DHT22;4359;49.358;11.256;2023-04-03T05:11:32;-0.10;99.90
8643;DHT22;4359;49.358;11.256;2023-04-03T05:13:58;0.00;99.90
8643;DHT22;4359;49.358;11.256;2023-04-03T05:16:23;0.10;99.90
8643;DHT22;4359;49.358;11.256;2023-04-03T05:18:49;0.10;99.90
8643;DHT22;4359;49.358;11.256;2023-04-03T05:21:15;0.20;99.90
8643;DHT22;4359;49.358;11.256;2023-04-03T05:23:40;0.20;99.90
8643;DHT22;4359;49.358;11.256;2023-04-03T05:26:06;0.30;99.90
8643;DHT22;4359;49.358;11.256;2023-04-03T05:28:32;0.40;99.90
8643;DHT22;4359;49.358;11.256;2023-04-03T05:30:58;0.40;99.90
8643;DHT22;4359;49.358;11.256;2023-04-03T05:33:25;0.50;99.90
8643;DHT22;4359;49.358;11.256;2023-04-03T05:35:51;0.60;99.90
8643;DHT22;4359;49.358;11.256;2023-04-03T05:38:17;0.70;99.90
8643;DHT22;4359;49.358;11.256;2023-04-03T05:40:43;0.80;99.90
8643;DHT22;4359;49.358;11.256;2023-04-03T05:43:08;0.90;99.90
8643;DHT22;4359;49.358;11.256;2023-04-03T05:45:34;1.00;99.90
8643;DHT22;4359;49.358;11.256;2023-04-03T05:48:00;1.10;99.90
8643;DHT22;4359;49.358;11.256;2023-04-03T05:50:25;1.30;99.90
8643;DHT22;4359;49.358;11.256;2023-04-03T05:52:51;1.30;99.90
8643;DHT22;4359;49.358;11.256;2023-04-03T05:55:18;1.40;99.90
8643;DHT22;4359;49.358;11.256;2023-04-03T05:57:43;1.50;99.90
8643;DHT22;4359;49.358;11.256;2023-04-03T06:00:12;1.60;99.90
8643;DHT22;4359;49.358;11.256;2023-04-03T06:02:40;1.70;99.90
8643;DHT22;4359;49.358;11.256;2023-04-03T06:05:07;1.90;99.90
8643;DHT22;4359;49.358;11.256;2023-04-03T06:07:34;1.90;99.90
8643;DHT22;4359;49.358;11.256;2023-04-03T06:10:00;2.00;99.90
8643;DHT22;4359;49.358;11.256;2023-04-03T06:12:27;2.20;99.90
8643;DHT22;4359;49.358;11.256;2023-04-03T06:14:55;2.20;99.90
8643;DHT22;4359;49.358;11.256;2023-04-03T06:17:20;2.30;99.90
8643;DHT22;4359;49.358;11.256;2023-04-03T06:19:46;2.30;99.90
8643;DHT22;4359;49.358;11.256;2023-04-03T06:22:12;2.50;99.90
8643;DHT22;4359;49.358;11.256;2023-04-03T06:24:38;2.60;99.90
8643;DHT22;4359;49.358;11.256;2023-04-03T06:27:04;2.60;99.90
8643;DHT22;4359;49.358;11.256;2023-04-03T06:29:29;2.70;99.90
8643;DHT22;4359;49.358;11.256;2023-04-03T06:31:55;2.70;99.90
8643;DHT22;4359;49.358;11.256;2023-04-03T06:34:21;2.80;99.90
8643;DHT22;4359;49.358;11.256;2023-04-03T06:36:47;2.80;99.90
8643;DHT22;4359;49.358;11.256;2023-04-03T06:39:19;2.80;99.90
8643;DHT22;4359;49.358;11.256;2023-04-03T06:41:50;2.80;99.90
8643;DHT22;4359;49.358;11.256;2023-04-03T06:44:17;2.90;99.90
8643;DHT22;4359;49.358;11.256;2023-04-03T06:46:43;2.80;99.90
8643;DHT22;4359;49.358;11.256;2023-04-03T06:49:09;2.90;99.90
8643;DHT22;4359;49.358;11.256;2023-04-03T06:51:36;2.90;99.90
8643;DHT22;4359;49.358;11.256;2023-04-03T06:54:03;3.10;99.90
8643;DHT22;4359;49.358;11.256;2023-04-03T06:56:29;3.20;99.90
8643;DHT22;4359;49.358;11.256;2023-04-03T06:58:55;3.40;99.90
8643;DHT22;4359;49.358;11.256;2023-04-03T07:01:24;3.40;99.90
8643;DHT22;4359;49.358;11.256;2023-04-03T07:03:51;3.50;99.90
8643;DHT22;4359;49.358;11.256;2023-04-03T07:06:18;3.50;99.90
8643;DHT22;4359;49.358;11.256;2023-04-03T07:08:45;3.50;99.90
8643;DHT22;4359;49.358;11.256;2023-04-03T07:11:11;3.60;99.90
8643;DHT22;4359;49.358;11.256;2023-04-03T07:13:37;3.50;99.90
8643;DHT22;4359;49.358;11.256;2023-04-03T07:16:03;3.60;99.90
8643;DHT22;4359;49.358;11.256;2023-04-03T07:18:32;3.80;99.90
8643;DHT22;4359;49.358;11.256;2023-04-03T07:20:57;3.90;99.90
8643;DHT22;4359;49.358;11.256;2023-04-03T07:23:23;4.00;99.90
8643;DHT22;4359;49.358;11.256;2023-04-03T07:25:50;4.00;99.90
8643;DHT22;4359;49.358;11.256;2023-04-03T07:28:17;4.10;99.90
8643;DHT22;4359;49.358;11.256;2023-04-03T07:31:03;4.20;99.90
8643;DHT22;4359;49.358;11.256;2023-04-03T07:33:40;4.10;99.90
8643;DHT22;4359;49.358;11.256;2023-04-03T07:36:06;4.00;99.90
8643;DHT22;4359;49.358;11.256;2023-04-03T07:38:33;4.10;99.90
8643;DHT22;4359;49.358;11.256;2023-04-03T07:40:59;4.30;99.90
8643;DHT22;4359;49.358;11.256;2023-04-03T07:43:24;4.30;99.90
8643;DHT22;4359;49.358;11.256;2023-04-03T07:45:51;4.10;99.90
8643;DHT22;4359;49.358;11.256;2023-04-03T07:48:22;4.10;99.90
8643;DHT22;4359;49.358;11.256;2023-04-03T07:50:48;3.90;99.90
8643;DHT22;4359;49.358;11.256;2023-04-03T07:53:14;4.00;99.90
8643;DHT22;4359;49.358;11.256;2023-04-03T07:55:40;4.10;99.90
8643;DHT22;4359;49.358;11.256;2023-04-03T07:58:12;4.10;99.90
8643;DHT22;4359;49.358;11.256;2023-04-03T08:00:40;4.40;99.90
8643;DHT22;4359;49.358;11.256;2023-04-03T08:03:07;4.60;99.90
8643;DHT22;4359;49.358;11.256;2023-04-03T08:05:36;4.70;99.90
8643;DHT22;4359;49.358;11.256;2023-04-03T08:08:03;4.90;99.90
8643;DHT22;4359;49.358;11.256;2023-04-03T08:10:29;4.90;99.90
8643;DHT22;4359;49.358;11.256;2023-04-03T08:12:55;5.00;99.90
8643;DHT22;4359;49.358;11.256;2023-04-03T08:15:21;4.80;99.90
8643;DHT22;4359;49.358;11.256;2023-04-03T08:17:47;4.70;99.90
8643;DHT22;4359;49.358;11.256;2023-04-03T08:20:13;4.90;99.90
8643;DHT22;4359;49.358;11.256;2023-04-03T08:22:38;5.00;99.90
8643;DHT22;4359;49.358;11.256;2023-04-03T08:25:04;5.20;99.90
8643;DHT22;4359;49.358;11.256;2023-04-03T08:27:30;5.00;99.90
8643;DHT22;4359;49.358;11.256;2023-04-03T08:29:56;5.10;99.90
8643;DHT22;4359;49.358;11.256;2023-04-03T08:32:22;5.30;99.90
8643;DHT22;4359;49.358;11.256;2023-04-03T08:34:48;5.50;99.90
8643;DHT22;4359;49.358;11.256;2023-04-03T08:37:13;5.50;99.90
8643;DHT22;4359;49.358;11.256;2023-04-03T08:39:41;5.60;99.90
8643;DHT22;4359;49.358;11.256;2023-04-03T08:43:03;5.50;99.90
8643;DHT22;4359;49.358;11.256;2023-04-03T08:48:06;6.10;99.90
8643;DHT22;4359;49.358;11.256;2023-04-03T08:50:45;6.20;99.90
8643;DHT22;4359;49.358;11.256;2023-04-03T08:53:16;6.40;99.90
8643;DHT22;4359;49.358;11.256;2023-04-03T08:55:48;6.30;99.90
8643;DHT22;4359;49.358;11.256;2023-04-03T08:58:21;6.10;99.90
8643;DHT22;4359;49.358;11.256;2023-04-03T09:00:57;6.20;99.90
8643;DHT22;4359;49.358;11.256;2023-04-03T09:03:25;6.00;99.90
8643;DHT22;4359;49.358;11.256;2023-04-03T09:22:23;5.00;99.90
8643;DHT22;4359;49.358;11.256;2023-04-03T09:25:00;4.90;99.90
8643;DHT22;4359;49.358;11.256;2023-04-03T09:27:27;5.10;99.90
8643;DHT22;4359;49.358;11.256;2023-04-03T09:29:53;5.20;99.90
8643;DHT22;4359;49.358;11.256;2023-04-03T09:34:53;5.20;99.90
8643;DHT22;4359;49.358;11.256;2023-04-03T09:37:39;5.40;99.90
8643;DHT22;4359;49.358;11.256;2023-04-03T09:40:11;5.10;99.90
8643;DHT22;4359;49.358;11.256;2023-04-03T09:45:44;5.40;99.90
8643;DHT22;4359;49.358;11.256;2023-04-03T09:53:38;5.70;99.90
8643;DHT22;4359;49.358;11.256;2023-04-03T10:15:01;6.80;99.90
8643;DHT22;4359;49.358;11.256;2023-04-03T10:25:07;6.70;99.90
8643;DHT22;4359;49.358;11.256;2023-04-03T10:27:46;6.70;99.90
8643;DHT22;4359;49.358;11.256;2023-04-03T10:33:39;6.60;99.90
8643;DHT22;4359;49.358;11.256;2023-04-03T10:47:09;6.70;99.90
8643;DHT22;4359;49.358;11.256;2023-04-03T10:50:31;7.10;99.90
8643;DHT22;4359;49.358;11.256;2023-04-03T10:53:09;7.20;99.90
8643;DHT22;4359;49.358;11.256;2023-04-03T10:55:47;7.10;99.90
8643;DHT22;4359;49.358;11.256;2023-04-03T10:58:26;6.70;99.90
8643;DHT22;4359;49.358;11.256;2023-04-03T11:00:54;6.70;99.90
8643;DHT22;4359;49.358;11.256;2023-04-03T11:03:30;7.30;99.90
8643;DHT22;4359;49.358;11.256;2023-04-03T11:06:00;8.10;99.90
8643;DHT22;4359;49.358;11.256;2023-04-03T11:08:38;7.80;99.90
8643;DHT22;4359;49.358;11.256;2023-04-03T11:11:19;6.90;99.90
8643;DHT22;4359;49.358;11.256;2023-04-03T11:13:57;6.50;99.90
8643;DHT22;4359;49.358;11.256;2023-04-03T11:16:28;6.40;99.90
8643;DHT22;4359;49.358;11.256;2023-04-03T11:19:04;6.30;99.90
8643;DHT22;4359;49.358;11.256;2023-04-03T11:21:42;6.30;99.90
8643;DHT22;4359;49.358;11.256;2023-04-03T11:24:32;6.80;99.90
8643;DHT22;4359;49.358;11.256;2023-04-03T11:27:00;7.90;99.90
8643;DHT22;4359;49.358;11.256;2023-04-03T11:29:35;8.40;99.90
8643;DHT22;4359;49.358;11.256;2023-04-03T11:34:58;7.80;99.90
8643;DHT22;4359;49.358;11.256;2023-04-03T11:37:30;8.10;99.90
8643;DHT22;4359;49.358;11.256;2023-04-03T11:40:26;8.70;99.90
8643;DHT22;4359;49.358;11.256;2023-04-03T11:47:57;8.20;98.90
8643;DHT22;4359;49.358;11.256;2023-04-03T12:16:26;9.20;95.10
8643;DHT22;4359;49.358;11.256;2023-04-03T12:35:14;7.10;98.00
8643;DHT22;4359;49.358;11.256;2023-04-03T12:51:08;10.80;93.30
8643;DHT22;4359;49.358;11.256;2023-04-03T12:53:36;10.90;92.10
8643;DHT22;4359;49.358;11.256;2023-04-03T12:56:26;10.00;90.80
8643;DHT22;4359;49.358;11.256;2023-04-03T12:58:55;8.40;92.50
8643;DHT22;4359;49.358;11.256;2023-04-03T13:01:24;7.80;93.00
8643;DHT22;4359;49.358;11.256;2023-04-03T13:03:54;7.90;92.70
8643;DHT22;4359;49.358;11.256;2023-04-03T13:06:41;7.90;93.50
8643;DHT22;4359;49.358;11.256;2023-04-03T13:09:26;8.50;94.70
8643;DHT22;4359;49.358;11.256;2023-04-03T13:12:00;8.60;92.60
8643;DHT22;4359;49.358;11.256;2023-04-03T13:14:27;8.60;93.50
8643;DHT22;4359;49.358;11.256;2023-04-03T13:17:12;9.00;94.40
8643;DHT22;4359;49.358;11.256;2023-04-03T13:19:39;9.70;93.20
8643;DHT22;4359;49.358;11.256;2023-04-03T13:22:18;10.40;91.10
8643;DHT22;4359;49.358;11.256;2023-04-03T13:24:49;10.40;90.90
8643;DHT22;4359;49.358;11.256;2023-04-03T13:27:16;10.40;90.10
8643;DHT22;4359;49.358;11.256;2023-04-03T13:29:42;10.70;90.50
8643;DHT22;4359;49.358;11.256;2023-04-03T13:32:24;11.00;91.50
8643;DHT22;4359;49.358;11.256;2023-04-03T13:34:50;11.10;88.90
8643;DHT22;4359;49.358;11.256;2023-04-03T13:37:24;11.20;88.50
8643;DHT22;4359;49.358;11.256;2023-04-03T13:42:35;10.80;89.30
8643;DHT22;4359;49.358;11.256;2023-04-03T13:45:16;9.90;89.50
8643;DHT22;4359;49.358;11.256;2023-04-03T13:47:46;9.10;90.50
8643;DHT22;4359;49.358;11.256;2023-04-03T13:52:51;9.30;90.40
8643;DHT22;4359;49.358;11.256;2023-04-03T13:57:56;9.80;90.50
8643;DHT22;4359;49.358;11.256;2023-04-03T14:00:39;9.60;90.60
8643;DHT22;4359;49.358;11.256;2023-04-03T14:06:06;9.00;91.10
8643;DHT22;4359;49.358;11.256;2023-04-03T14:08:32;9.30;89.30
8643;DHT22;4359;49.358;11.256;2023-04-03T14:10:58;9.80;90.10
8643;DHT22;4359;49.358;11.256;2023-04-03T14:13:24;10.30;88.50
8643;DHT22;4359;49.358;11.256;2023-04-03T14:15:50;10.80;85.60
8643;DHT22;4359;49.358;11.256;2023-04-03T14:18:18;10.30;87.40
8643;DHT22;4359;49.358;11.256;2023-04-03T14:20:45;9.20;91.00
8643;DHT22;4359;49.358;11.256;2023-04-03T14:23:10;8.60;92.50
8643;DHT22;4359;49.358;11.256;2023-04-03T14:25:37;8.40;93.40
8643;DHT22;4359;49.358;11.256;2023-04-03T14:28:14;8.40;92.60
8643;DHT22;4359;49.358;11.256;2023-04-03T14:30:40;8.20;92.80
8643;DHT22;4359;49.358;11.256;2023-04-03T14:33:06;8.10;92.20
8643;DHT22;4359;49.358;11.256;2023-04-03T14:35:32;7.90;93.70
8643;DHT22;4359;49.358;11.256;2023-04-03T14:37:58;7.80;92.80
8643;DHT22;4359;49.358;11.256;2023-04-03T14:40:27;7.80;93.20
8643;DHT22;4359;49.358;11.256;2023-04-03T14:42:53;7.70;92.80
8643;DHT22;4359;49.358;11.256;2023-04-03T14:45:22;7.70;93.10
8643;DHT22;4359;49.358;11.256;2023-04-03T14:47:53;7.70;93.40
8643;DHT22;4359;49.358;11.256;2023-04-03T14:50:22;7.90;92.70
8643;DHT22;4359;49.358;11.256;2023-04-03T14:52:50;8.20;92.20
8643;DHT22;4359;49.358;11.256;2023-04-03T14:55:19;8.30;91.80
8643;DHT22;4359;49.358;11.256;2023-04-03T14:57:45;8.30;91.90
8643;DHT22;4359;49.358;11.256;2023-04-03T15:00:16;8.10;93.30
8643;DHT22;4359;49.358;11.256;2023-04-03T15:02:43;7.90;94.30
8643;DHT22;4359;49.358;11.256;2023-04-03T15:05:10;7.70;94.50
8643;DHT22;4359;49.358;11.256;2023-04-03T15:07:39;7.10;95.20
8643;DHT22;4359;49.358;11.256;2023-04-03T15:12:39;7.20;95.90
8643;DHT22;4359;49.358;11.256;2023-04-03T15:15:05;7.40;95.40
8643;DHT22;4359;49.358;11.256;2023-04-03T15:17:31;7.30;94.60
8643;DHT22;4359;49.358;11.256;2023-04-03T15:19:58;7.40;94.80
8643;DHT22;4359;49.358;11.256;2023-04-03T15:22:24;7.60;94.60
8643;DHT22;4359;49.358;11.256;2023-04-03T15:24:49;7.60;94.80
8643;DHT22;4359;49.358;11.256;2023-04-03T15:27:15;7.60;93.60
8643;DHT22;4359;49.358;11.256;2023-04-03T15:29:42;7.30;94.30
8643;DHT22;4359;49.358;11.256;2023-04-03T15:32:08;7.10;95.00
8643;DHT22;4359;49.358;11.256;2023-04-03T15:34:34;7.00;94.90
8643;DHT22;4359;49.358;11.256;2023-04-03T15:37:00;6.70;95.70
8643;DHT22;4359;49.358;11.256;2023-04-03T15:39:26;6.70;96.80
8643;DHT22;4359;49.358;11.256;2023-04-03T15:41:52;6.70;96.50
8643;DHT22;4359;49.358;11.256;2023-04-03T15:44:19;6.80;96.90
8643;DHT22;4359;49.358;11.256;2023-04-03T15:46:48;6.90;96.40
8643;DHT22;4359;49.358;11.256;2023-04-03T15:49:14;7.00;96.70
8643;DHT22;4359;49.358;11.256;2023-04-03T15:51:40;7.00;96.00
8643;DHT22;4359;49.358;11.256;2023-04-03T15:54:06;6.80;96.10
8643;DHT22;4359;49.358;11.256;2023-04-03T15:56:32;6.70;95.80
8643;DHT22;4359;49.358;11.256;2023-04-03T15:58:58;6.50;95.90
8643;DHT22;4359;49.358;11.256;2023-04-03T16:01:23;6.50;95.60
8643;DHT22;4359;49.358;11.256;2023-04-03T16:03:49;6.50;95.70
8643;DHT22;4359;49.358;11.256;2023-04-03T16:06:16;6.40;95.90
8643;DHT22;4359;49.358;11.256;2023-04-03T16:08:44;6.40;96.20
8643;DHT22;4359;49.358;11.256;2023-04-03T16:11:09;6.40;96.40
8643;DHT22;4359;49.358;11.256;2023-04-03T16:13:35;6.60;96.30
8643;DHT22;4359;49.358;11.256;2023-04-03T16:16:02;6.50;96.40
8643;DHT22;4359;49.358;11.256;2023-04-03T16:18:28;6.70;96.40
8643;DHT22;4359;49.358;11.256;2023-04-03T16:20:55;6.50;96.60
8643;DHT22;4359;49.358;11.256;2023-04-03T16:23:20;6.60;97.40
8643;DHT22;4359;49.358;11.256;2023-04-03T16:25:46;6.60;96.30
8643;DHT22;4359;49.358;11.256;2023-04-03T16:28:15;6.30;96.70
8643;DHT22;4359;49.358;11.256;2023-04-03T16:30:43;6.10;97.10
8643;DHT22;4359;49.358;11.256;2023-04-03T16:33:10;6.00;96.70
8643;DHT22;4359;49.358;11.256;2023-04-03T16:35:36;5.90;96.80
8643;DHT22;4359;49.358;11.256;2023-04-03T16:38:02;5.70;96.80
8643;DHT22;4359;49.358;11.256;2023-04-03T16:40:28;5.70;97.20
8643;DHT22;4359;49.358;11.256;2023-04-03T16:42:53;5.60;98.00
8643;DHT22;4359;49.358;11.256;2023-04-03T16:45:19;5.50;97.80
8643;DHT22;4359;49.358;11.256;2023-04-03T16:47:44;5.50;97.80
8643;DHT22;4359;49.358;11.256;2023-04-03T16:50:10;5.50;97.70
8643;DHT22;4359;49.358;11.256;2023-04-03T16:52:36;5.50;98.00
8643;DHT22;4359;49.358;11.256;2023-04-03T16:55:02;5.40;98.60
8643;DHT22;4359;49.358;11.256;2023-04-03T16:57:27;5.60;98.30
8643;DHT22;4359;49.358;11.256;2023-04-03T16:59:53;5.60;98.00
8643;DHT22;4359;49.358;11.256;2023-04-03T17:02:20;5.50;98.40
8643;DHT22;4359;49.358;11.256;2023-04-03T17:04:46;5.60;98.20
8643;DHT22;4359;49.358;11.256;2023-04-03T17:07:12;5.50;98.60
8643;DHT22;4359;49.358;11.256;2023-04-03T17:09:37;5.50;98.10
8643;DHT22;4359;49.358;11.256;2023-04-03T17:12:03;5.40;98.50
8643;DHT22;4359;49.358;11.256;2023-04-03T17:14:29;5.20;98.60
8643;DHT22;4359;49.358;11.256;2023-04-03T17:16:54;5.10;98.60
8643;DHT22;4359;49.358;11.256;2023-04-03T17:19:20;5.00;98.60
8643;DHT22;4359;49.358;11.256;2023-04-03T17:21:46;5.10;98.20
8643;DHT22;4359;49.358;11.256;2023-04-03T17:24:12;4.90;98.60
8643;DHT22;4359;49.358;11.256;2023-04-03T17:26:41;4.90;98.80
8643;DHT22;4359;49.358;11.256;2023-04-03T17:29:07;4.80;98.90
8643;DHT22;4359;49.358;11.256;2023-04-03T17:31:33;4.70;99.50
8643;DHT22;4359;49.358;11.256;2023-04-03T17:33:59;4.80;98.70
8643;DHT22;4359;49.358;11.256;2023-04-03T17:36:31;4.80;98.40
8643;DHT22;4359;49.358;11.256;2023-04-03T17:38:57;4.70;98.10
8643;DHT22;4359;49.358;11.256;2023-04-03T17:41:23;4.60;97.90
8643;DHT22;4359;49.358;11.256;2023-04-03T17:43:49;4.60;98.00
8643;DHT22;4359;49.358;11.256;2023-04-03T17:46:15;4.50;98.40
8643;DHT22;4359;49.358;11.256;2023-04-03T17:48:42;4.50;98.50
8643;DHT22;4359;49.358;11.256;2023-04-03T17:51:11;4.50;99.10
8643;DHT22;4359;49.358;11.256;2023-04-03T17:53:37;4.40;98.80
8643;DHT22;4359;49.358;11.256;2023-04-03T17:56:12;4.30;98.90
8643;DHT22;4359;49.358;11.256;2023-04-03T17:58:38;4.30;99.00
8643;DHT22;4359;49.358;11.256;2023-04-03T18:01:37;4.20;99.20
8643;DHT22;4359;49.358;11.256;2023-04-03T18:03:59;4.20;99.40
8643;DHT22;4359;49.358;11.256;2023-04-03T18:06:31;4.10;99.60
8643;DHT22;4359;49.358;11.256;2023-04-03T18:09:04;4.00;99.90
8643;DHT22;4359;49.358;11.256;2023-04-03T18:11:32;3.80;99.90
8643;DHT22;4359;49.358;11.256;2023-04-03T18:13:59;3.80;99.90
8643;DHT22;4359;49.358;11.256;2023-04-03T18:16:26;3.60;99.90
8643;DHT22;4359;49.358;11.256;2023-04-03T18:18:51;3.40;99.90
8643;DHT22;4359;49.358;11.256;2023-04-03T18:21:17;3.30;99.90
8643;DHT22;4359;49.358;11.256;2023-04-03T18:23:49;3.20;99.90
8643;DHT22;4359;49.358;11.256;2023-04-03T18:26:16;3.10;99.90
8643;DHT22;4359;49.358;11.256;2023-04-03T18:28:42;3.10;99.90
8643;DHT22;4359;49.358;11.256;2023-04-03T18:31:10;3.00;99.90
8643;DHT22;4359;49.358;11.256;2023-04-03T18:33:37;3.00;99.90
8643;DHT22;4359;49.358;11.256;2023-04-03T18:36:03;3.00;99.90